Airport View

Enter AWOS ICAO identifier for current METAR.

ex. KFNL

KCIC 022340Z AUTO 21006KT 10SM CLR 35/07 A2993 RMK AO1

2 Jun 2020 23:42

Frequency: 119.675

Phone: 530-879-3850

Other Area AWOS: KOVE - KRBL - KMYV - KBAB

TAF KRBL 021734Z 0218/0318 34012KT P6SM SKC FM022100 VRB05KT P6SM SKC